Time;durP1;ratioP1;P1;durP2;ratioP2;P2;SDS_P1;SDS_P2;PMS_P1;PMS_P2;Temp;Humidity;BMP_temperature;BMP_pressure;BME280_temperature;BME280_humidity;BME280_pressure;Samples;Min_cycle;Max_cycle;Signal;HPM_P1;HPM_P2
2022/02/20 00:01:11;;;;;;;;;;;;;;;5.56;100.00;100399.00;2567527;30;137186;-40
2022/02/20 00:03:39;;;;;;;;;;;;;;;5.52;100.00;100403.94;2568093;30;137670;-40
2022/02/20 00:06:08;;;;;;;;;;;;;;;5.47;100.00;100406.38;2568016;30;136762;-40
2022/02/20 00:08:36;;;;;;;;;;;;;;;5.53;98.99;100402.91;2568477;30;138377;-40
2022/02/20 00:11:04;;;;;;;;;;;;;;;5.55;100.00;100411.69;2568560;30;137769;-40
2022/02/20 00:13:31;;;;;;;;;;;;;;;5.51;99.83;100434.75;2568761;30;137378;-40
2022/02/20 00:15:59;;;;;;;;;;;;;;;5.49;99.26;100438.69;2569252;30;136910;-40
2022/02/20 00:18:27;;;;;;;;;;;;;;;5.56;98.76;100442.31;2569461;30;138374;-40
2022/02/20 00:20:55;;;;;;;;;;;;;;;5.57;97.91;100457.50;2567917;30;137655;-40
2022/02/20 00:23:23;;;;;;;;;;;;;;;5.57;97.96;100457.50;2567620;30;139127;-40
2022/02/20 00:25:51;;;;;;;;;;;;;;;5.56;97.68;100475.59;2568236;30;137788;-40
2022/02/20 00:28:18;;;;;;;;;;;;;;;5.54;98.96;100479.53;2569954;30;138347;-40
2022/02/20 00:30:47;;;;;;;;;;;;;;;5.53;99.47;100489.50;2567271;30;138926;-40
2022/02/20 00:33:15;;;;;;;;;;;;;;;5.51;98.57;100499.69;2569490;30;138256;-40
2022/02/20 00:35:43;;;;;;;;;;;;;;;5.46;98.25;100511.09;2568697;30;137112;-40
2022/02/20 00:38:11;;;;;;;;;;;;;;;5.35;98.75;100514.25;2567585;30;139243;-40
2022/02/20 00:40:39;;;;;;;;;;;;;;;5.23;98.74;100521.16;2566787;30;138700;-40
2022/02/20 00:43:08;;;;;;;;;;;;;;;5.12;95.86;100523.25;2569560;30;137237;-40
2022/02/20 00:45:36;;;;;;;;;;;;;;;4.99;93.64;100541.97;2569088;30;137226;-40
2022/02/20 00:48:04;;;;;;;;;;;;;;;4.91;94.38;100540.19;2567603;30;138846;-40
2022/02/20 00:50:34;;;;;;;;;;;;;;;4.81;93.77;100550.41;2569079;30;137696;-40
2022/02/20 00:53:01;;;;;;;;;;;;;;;4.76;94.32;100564.47;2568612;30;139181;-40
2022/02/20 00:55:30;;;;;;;;;;;;;;;4.63;96.35;100570.47;2568873;30;138139;-40
2022/02/20 00:57:58;;;;;;;;;;;;;;;4.55;97.34;100584.03;2568750;30;140033;-40
2022/02/20 01:00:26;;;;;;;;;;;;;;;4.52;98.06;100589.81;2567930;30;137601;-40
2022/02/20 01:02:59;;;;;;;;;;;;;;;4.46;97.56;100594.88;2569094;30;138055;-40
2022/02/20 01:05:28;;;;;;;;;;;;;;;4.42;96.82;100593.56;2568704;30;137105;-40
2022/02/20 01:07:56;;;;;;;;;;;;;;;4.42;96.83;100614.34;2568857;30;140545;-40
2022/02/20 01:10:24;;;;;;;;;;;;;;;4.33;95.80;100613.53;2567347;30;137568;-40
2022/02/20 01:12:52;;;;;;;;;;;;;;;4.20;95.99;100624.06;2567577;30;139767;-40
2022/02/20 01:15:24;;;;;;;;;;;;;;;4.14;96.91;100620.22;2569241;30;136828;-40
2022/02/20 01:17:52;;;;;;;;;;;;;;;4.12;97.25;100638.44;2567686;30;138875;-40
2022/02/20 01:20:21;;;;;;;;;;;;;;;4.07;97.25;100644.38;2568733;30;137491;-40
2022/02/20 01:22:48;;;;;;;;;;;;;;;4.12;96.92;100655.47;2568318;30;140765;-40
2022/02/20 01:25:17;;;;;;;;;;;;;;;4.12;96.48;100655.47;2568495;30;136669;-40
2022/02/20 01:27:45;;;;;;;;;;;;;;;4.14;94.15;100653.44;2569118;30;139278;-40
2022/02/20 01:30:13;;;;;;;;;;;;;;;4.21;95.22;100647.34;2567455;30;137242;-40
2022/02/20 01:32:41;;;;;;;;;;;;;;;4.15;94.13;100660.53;2568559;30;138308;-40
2022/02/20 01:35:10;;;;;;;;;;;;;;;4.13;95.01;100650.94;2568235;30;137251;-40
2022/02/20 01:37:37;;;;;;;;;;;;;;;4.17;95.76;100660.38;2568320;30;138416;-40
2022/02/20 01:40:07;;;;;;;;;;;;;;;4.18;95.59;100665.56;2567996;30;138610;-40
2022/02/20 01:42:35;;;;;;;;;;;;;;;4.15;95.25;100665.09;2567556;30;139701;-40
2022/02/20 01:45:04;;;;;;;;;;;;;;;4.14;96.23;100675.06;2568940;30;137000;-40
2022/02/20 01:47:33;;;;;;;;;;;;;;;4.14;96.18;100680.44;2569295;30;139185;-40
2022/02/20 01:50:01;;;;;;;;;;;;;;;4.15;96.01;100692.94;2567772;30;138126;-40
2022/02/20 01:52:30;;;;;;;;;;;;;;;4.17;96.24;100696.31;2566882;30;140685;-40
2022/02/20 01:55:07;;;;;;;;;;;;;;;4.17;97.01;100703.59;2567907;30;139695;-40
2022/02/20 01:57:53;;;;;;;;;;;;;;;4.12;98.30;100706.78;2566830;30;136866;-40
2022/02/20 02:00:46;;;;;;;;;;;;;;;4.13;97.22;100711.16;2568831;30;138196;-40
2022/02/20 02:03:37;;;;;;;;;;;;;;;4.14;98.16;100720.97;2566766;30;137145;-40
2022/02/20 02:06:11;;;;;;;;;;;;;;;4.16;97.66;100721.63;2567882;30;137109;-40
2022/02/20 02:08:39;;;;;;;;;;;;;;;4.18;96.64;100733.09;2567795;30;138922;-40
2022/02/20 02:11:27;;;;;;;;;;;;;;;4.17;96.67;100742.22;2568927;30;138202;-40
2022/02/20 02:14:01;;;;;;;;;;;;;;;4.11;97.04;100744.75;2566110;30;138910;-40
2022/02/20 02:16:49;;;;;;;;;;;;;;;4.14;97.67;100752.53;2566774;30;139007;-40
2022/02/20 02:19:32;;;;;;;;;;;;;;;4.14;96.71;100756.06;2567403;30;140352;-40
2022/02/20 02:22:23;;;;;;;;;;;;;;;4.09;97.47;100753.03;2569744;30;137118;-40
2022/02/20 02:25:09;;;;;;;;;;;;;;;4.12;97.31;100766.19;2569239;30;138997;-40
2022/02/20 02:28:06;;;;;;;;;;;;;;;4.18;97.68;100756.56;2568094;30;136810;-40
2022/02/20 02:30:46;;;;;;;;;;;;;;;4.18;96.57;100767.38;2568130;30;138957;-40
2022/02/20 02:33:30;;;;;;;;;;;;;;;4.16;97.08;100770.22;2568226;30;139049;-40
2022/02/20 02:35:58;;;;;;;;;;;;;;;4.15;97.35;100757.75;2567189;30;139996;-40
2022/02/20 02:38:27;;;;;;;;;;;;;;;4.13;96.28;100781.38;2568671;30;138114;-40
2022/02/20 02:40:57;;;;;;;;;;;;;;;4.10;95.99;100788.97;2567424;30;137191;-40
2022/02/20 02:43:25;;;;;;;;;;;;;;;4.11;96.18;100788.81;2566832;30;139635;-40
2022/02/20 02:45:56;;;;;;;;;;;;;;;4.10;96.88;100784.44;2567778;30;140540;-40
2022/02/20 02:48:24;;;;;;;;;;;;;;;4.08;98.02;100793.69;2566397;30;136729;-40
2022/02/20 02:50:52;;;;;;;;;;;;;;;4.06;97.44;100782.22;2568728;30;139034;-40
2022/02/20 02:53:20;;;;;;;;;;;;;;;4.07;98.31;100787.47;2566318;30;138475;-40
2022/02/20 02:55:51;;;;;;;;;;;;;;;4.09;98.00;100785.44;2567968;30;138278;-40
2022/02/20 02:58:22;;;;;;;;;;;;;;;4.11;97.49;100791.50;2568579;30;137765;-40
2022/02/20 03:00:52;;;;;;;;;;;;;;;4.10;95.49;100791.66;2566326;30;140533;-40
2022/02/20 03:03:21;;;;;;;;;;;;;;;4.08;94.66;100801.81;2567080;30;138656;-40
2022/02/20 03:05:49;;;;;;;;;;;;;;;4.05;95.00;100803.00;2568308;30;139007;-40
2022/02/20 03:08:17;;;;;;;;;;;;;;;4.05;95.72;100810.25;2568675;30;139509;-40
2022/02/20 03:10:45;;;;;;;;;;;;;;;4.03;96.18;100819.34;2567055;30;139453;-40
2022/02/20 03:13:16;;;;;;;;;;;;;;;4.04;96.36;100817.50;2566306;30;137010;-40
2022/02/20 03:15:47;;;;;;;;;;;;;;;4.01;97.10;100812.47;2567974;30;140743;-40
2022/02/20 03:18:15;;;;;;;;;;;;;;;4.07;97.61;100825.28;2568565;30;138766;-40
2022/02/20 03:20:42;;;;;;;;;;;;;;;4.04;98.33;100822.91;2567816;30;139371;-40
2022/02/20 03:23:10;;;;;;;;;;;;;;;4.08;97.01;100820.69;2566220;30;138794;-40
2022/02/20 03:25:38;;;;;;;;;;;;;;;4.05;94.33;100821.03;2568165;30;137907;-40
2022/02/20 03:28:11;;;;;;;;;;;;;;;4.05;94.41;100823.75;2568078;30;138034;-40
2022/02/20 03:30:52;;;;;;;;;;;;;;;4.03;95.18;100818.53;2567933;30;139439;-40
2022/02/20 03:33:21;;;;;;;;;;;;;;;4.03;96.13;100832.03;2567886;30;138021;-40
2022/02/20 03:35:49;;;;;;;;;;;;;;;4.01;95.44;100829.47;2565313;30;138772;-40
2022/02/20 03:38:18;;;;;;;;;;;;;;;4.02;95.81;100846.53;2565636;30;138332;-40
2022/02/20 03:40:46;;;;;;;;;;;;;;;3.95;97.54;100843.66;2566771;30;139625;-40
2022/02/20 03:43:18;;;;;;;;;;;;;;;3.91;96.59;100852.25;2565788;30;138156;-40
2022/02/20 03:46:03;;;;;;;;;;;;;;;3.74;96.89;100852.25;2567488;30;138494;-40
2022/02/20 03:48:40;;;;;;;;;;;;;;;3.74;97.39;100850.38;2567245;30;139303;-40
2022/02/20 03:51:28;;;;;;;;;;;;;;;3.67;98.00;100853.91;2568231;30;136975;-40
2022/02/20 03:53:56;;;;;;;;;;;;;;;3.66;98.32;100850.38;2568378;30;139934;-40
2022/02/20 03:56:24;;;;;;;;;;;;;;;3.63;98.29;100847.16;2564343;30;139489;-40
2022/02/20 03:58:54;;;;;;;;;;;;;;;3.63;97.64;100839.94;2566120;30;137922;-40
2022/02/20 04:01:24;;;;;;;;;;;;;;;3.59;98.77;100831.31;2567041;30;138326;-41
2022/02/20 04:03:54;;;;;;;;;;;;;;;3.57;98.30;100836.03;2567404;30;139231;-40
2022/02/20 04:06:21;;;;;;;;;;;;;;;3.55;98.47;100826.41;2566521;30;139893;-40
2022/02/20 04:08:55;;;;;;;;;;;;;;;3.59;98.21;100831.31;2567650;30;137079;-40
2022/02/20 04:11:24;;;;;;;;;;;;;;;3.49;98.80;100827.94;2567184;30;139935;-41
2022/02/20 04:13:55;;;;;;;;;;;;;;;3.41;99.23;100822.50;2564962;30;138550;-40
2022/02/20 04:16:32;;;;;;;;;;;;;;;3.29;99.35;100817.44;2568128;30;139216;-41
2022/02/20 04:19:00;;;;;;;;;;;;;;;3.22;99.82;100821.81;2567869;30;138763;-41
2022/02/20 04:21:29;;;;;;;;;;;;;;;3.13;99.84;100828.16;2567152;30;139327;-40
2022/02/20 04:24:04;;;;;;;;;;;;;;;3.04;99.99;100818.38;2567559;30;138057;-40
2022/02/20 04:26:33;;;;;;;;;;;;;;;2.96;100.00;100816.47;2567140;30;139711;-40
2022/02/20 04:29:01;;;;;;;;;;;;;;;2.88;100.00;100815.44;2565592;30;137511;-40
2022/02/20 04:31:32;;;;;;;;;;;;;;;2.77;100.00;100812.19;2565481;30;138427;-40
2022/02/20 04:34:03;;;;;;;;;;;;;;;2.66;100.00;100811.47;2565594;30;138455;-40
2022/02/20 04:36:37;;;;;;;;;;;;;;;2.58;100.00;100808.72;2567283;30;139508;-40
2022/02/20 04:39:09;;;;;;;;;;;;;;;2.55;100.00;100807.22;2567810;30;139050;-40
2022/02/20 04:41:42;;;;;;;;;;;;;;;2.47;100.00;100800.94;2565463;30;138100;-40
2022/02/20 04:44:18;;;;;;;;;;;;;;;2.46;100.00;100805.47;2566835;30;137538;-40
2022/02/20 04:46:46;;;;;;;;;;;;;;;2.41;100.00;100808.66;2567425;30;139795;-40
2022/02/20 04:49:15;;;;;;;;;;;;;;;2.39;100.00;100794.50;2568076;30;138127;-40
2022/02/20 04:52:02;;;;;;;;;;;;;;;2.44;100.00;100794.88;2568376;30;137423;-40
2022/02/20 04:55:08;;;;;;;;;;;;;;;2.42;100.00;100788.78;2568180;30;136852;-40
2022/02/20 04:57:37;;;;;;;;;;;;;;;2.46;100.00;100789.31;2568771;30;138380;-40
2022/02/20 05:00:13;;;;;;;;;;;;;;;2.47;100.00;100774.00;2568936;30;139099;-40
2022/02/20 05:02:59;;;;;;;;;;;;;;;2.48;100.00;100770.31;2569015;30;137687;-40
2022/02/20 05:06:03;;;;;;;;;;;;;;;2.52;100.00;100764.44;2566219;30;136856;-40
2022/02/20 05:08:51;;;;;;;;;;;;;;;2.51;100.00;100757.34;2568444;30;138475;-40
2022/02/20 05:11:24;;;;;;;;;;;;;;;2.57;100.00;100755.84;2568143;30;138187;-40
2022/02/20 05:13:58;;;;;;;;;;;;;;;2.58;100.00;100757.53;2567756;30;139477;-40
2022/02/20 05:16:29;;;;;;;;;;;;;;;2.61;100.00;100751.84;2568791;30;138515;-40
2022/02/20 05:18:57;;;;;;;;;;;;;;;2.63;100.00;100741.72;2567468;30;138610;-40
2022/02/20 05:21:25;;;;;;;;;;;;;;;2.64;100.00;100740.72;2567040;30;137385;-40
2022/02/20 05:23:53;;;;;;;;;;;;;;;2.64;100.00;100738.03;2568665;30;139770;-40
2022/02/20 05:26:21;;;;;;;;;;;;;;;2.75;100.00;100734.19;2565789;30;139574;-40
2022/02/20 05:28:54;;;;;;;;;;;;;;;2.75;100.00;100733.38;2568643;30;139227;-40
2022/02/20 05:31:24;;;;;;;;;;;;;;;2.80;100.00;100728.34;2569079;30;139678;-40
2022/02/20 05:33:56;;;;;;;;;;;;;;;2.81;100.00;100720.09;2565412;30;139008;-40
2022/02/20 05:36:24;;;;;;;;;;;;;;;2.82;100.00;100724.47;2568133;30;139176;-40
2022/02/20 05:39:03;;;;;;;;;;;;;;;2.85;100.00;100728.69;2568491;30;140600;-40
2022/02/20 05:41:31;;;;;;;;;;;;;;;2.88;100.00;100712.19;2567947;30;138370;-40
2022/02/20 05:43:59;;;;;;;;;;;;;;;2.96;100.00;100706.81;2567245;30;138167;-40
2022/02/20 05:46:33;;;;;;;;;;;;;;;2.97;100.00;100686.94;2568464;30;137218;-40
2022/02/20 05:49:04;;;;;;;;;;;;;;;3.03;100.00;100682.72;2568118;30;139339;-40
2022/02/20 05:51:48;;;;;;;;;;;;;;;3.05;100.00;100663.69;2569046;30;139344;-40
2022/02/20 05:54:23;;;;;;;;;;;;;;;3.05;100.00;100669.09;2568889;30;140652;-40
2022/02/20 05:56:51;;;;;;;;;;;;;;;3.10;100.00;100666.72;2568307;30;136766;-40
2022/02/20 05:59:20;;;;;;;;;;;;;;;3.10;100.00;100669.44;2568881;30;139280;-40
2022/02/20 06:01:52;;;;;;;;;;;;;;;3.14;100.00;100678.88;2568027;30;138115;-40
2022/02/20 06:04:23;;;;;;;;;;;;;;;3.10;100.00;100669.44;2569503;30;138607;-41
2022/02/20 06:06:51;;;;;;;;;;;;;;;3.15;100.00;100664.38;2569094;30;137040;-40
2022/02/20 06:09:22;;;;;;;;;;;;;;;3.14;100.00;100651.91;2568404;30;137145;-40
2022/02/20 06:12:10;;;;;;;;;;;;;;;3.15;100.00;100640.97;2567906;30;136736;-40
2022/02/20 06:14:56;;;;;;;;;;;;;;;3.21;100.00;100641.31;2567966;30;136844;-40
2022/02/20 06:17:37;;;;;;;;;;;;;;;3.20;100.00;100632.38;2567963;30;138476;-40
2022/02/20 06:20:25;;;;;;;;;;;;;;;3.23;100.00;100628.50;2566845;30;137591;-40
2022/02/20 06:23:09;;;;;;;;;;;;;;;3.23;100.00;100623.94;2567669;30;137748;-40
2022/02/20 06:26:00;;;;;;;;;;;;;;;3.29;100.00;100622.41;2568162;30;137090;-40
2022/02/20 06:28:30;;;;;;;;;;;;;;;3.28;100.00;100615.34;2568140;30;137703;-40
2022/02/20 06:30:58;;;;;;;;;;;;;;;3.28;100.00;100618.88;2566856;30;139901;-40
2022/02/20 06:33:33;;;;;;;;;;;;;;;3.29;100.00;100612.47;2568173;30;137022;-40
2022/02/20 06:36:06;;;;;;;;;;;;;;;3.28;100.00;100599.16;2568952;30;139535;-40
2022/02/20 06:38:35;;;;;;;;;;;;;;;3.25;100.00;100584.19;2568311;30;138279;-40
2022/02/20 06:41:03;;;;;;;;;;;;;;;3.31;100.00;100580.78;2567712;30;138538;-40
2022/02/20 06:43:37;;;;;;;;;;;;;;;3.30;100.00;100570.16;2568649;30;139708;-40
2022/02/20 06:46:36;;;;;;;;;;;;;;;3.35;100.00;100554.34;2568939;30;138257;-40
2022/02/20 06:49:08;;;;;;;;;;;;;;;3.42;100.00;100540.97;2569211;30;137124;-40
2022/02/20 06:52:08;;;;;;;;;;;;;;;3.52;100.00;100544.34;2566759;30;137676;-40
2022/02/20 06:54:55;;;;;;;;;;;;;;;3.59;100.00;100531.00;2568457;30;136913;-40
2022/02/20 06:57:41;;;;;;;;;;;;;;;3.63;100.00;100526.09;2567854;30;136901;-40
2022/02/20 07:00:10;;;;;;;;;;;;;;;3.67;100.00;100539.06;2567568;30;137021;-40
2022/02/20 07:02:39;;;;;;;;;;;;;;;3.73;100.00;100521.34;2568098;30;139423;-40
2022/02/20 07:05:07;;;;;;;;;;;;;;;3.78;100.00;100528.91;2566331;30;137571;-40
2022/02/20 07:07:37;;;;;;;;;;;;;;;3.88;100.00;100511.47;2568663;30;138400;-40
2022/02/20 07:10:07;;;;;;;;;;;;;;;3.94;100.00;100512.66;2567455;30;137056;-40
2022/02/20 07:12:35;;;;;;;;;;;;;;;4.04;100.00;100512.44;2568403;30;139484;-40
2022/02/20 07:15:04;;;;;;;;;;;;;;;4.12;100.00;100506.16;2568933;30;137310;-40
2022/02/20 07:17:32;;;;;;;;;;;;;;;4.21;100.00;100517.72;2567419;30;138251;-40
